Latest Coastal Weather Observations for Cape Sorell

IDT60701

Issued at 11:22 pm EDT Saturday 28 February 2015 (issued every 10 minutes, with the page automatically refreshed every 10 minutes)

About coastal observations | Map of coastal stations | Coastal observations for TAS | Marine services | Other Formats
Station Details ID: 097000 Name: CAPE SORELL Lat: -42.20 Lon: 145.17 Height: 19.3 m
Data from the previous 72 hours. | See also: Recent months at Cape Sorell
Date/Time
EDT
Temp

°C
Wind Pressure Rain
since 9am
mm
Weather Cloud Vis
km
Sea
Height
m
Swell
Dir
 
Speed
knots
Gust
knots
hPa Trend Height
m
Period
s
Dir
28/11:00pm 14.3 WNW 10 17 1003.0 - 4.8 - - - - - - -
28/10:30pm 14.7 W 14 19 1002.8 - 4.8 - - - - - - -
28/10:00pm 15.5 W 12 16 1002.5 - 4.8 - - - - - - -
28/09:30pm 15.7 W 15 19 1002.0 - 4.8 - - - - - - -
28/09:00pm 15.3 W 20 26 1000.8 - 4.8 - - - - - - -
28/08:30pm 15.4 W 20 25 1000.1 - 4.8 - - - - - - -
28/08:15pm 15.7 WNW 18 26 999.8 - 4.8 - - - - - - -
28/08:00pm 16.4 WNW 14 19 999.7 - 4.8 - - - - - - -
28/07:30pm 16.6 NW 15 19 999.5 - 4.8 - - - - - - -
28/07:00pm 16.8 WNW 16 22 999.1 - 4.6 - - - - - - -
28/06:30pm 17.3 NW 14 23 998.9 - 4.6 - - - - - - -
28/06:00pm 17.6 NNW 15 19 998.4 - 4.6 - - - - - - -
28/05:30pm 17.6 N 18 24 997.6 - 4.6 - - - - - - -
28/05:00pm 17.9 NNW 22 28 998.6 - 4.6 - - - - - - -
28/04:36pm 18.2 NNW 21 31 998.4 - 4.6 - - - - - - -
28/04:30pm 18.2 NNW 17 26 998.4 - 4.6 - - - - - - -
28/04:00pm 18.6 N 24 29 997.7 - 4.6 - - - - - - -
28/03:30pm 18.0 N 26 31 997.7 - 4.6 - - - - - - -
28/03:00pm 17.6 N 23 31 998.4 - 4.6 - - - - - - -
28/02:30pm 16.7 N 23 27 998.6 - 4.6 - - - - - - -
28/02:00pm 15.9 NNE 22 27 998.9 - 4.6 - - - - - - -
28/01:30pm 15.5 NNE 23 28 999.6 - 4.6 - - - - - - -
28/01:00pm 15.3 NNE 21 28 1000.1 - 4.0 - - - - - - -
28/12:30pm 14.7 NNE 19 23 1001.0 - 3.8 - - - - - - -
28/12:00pm 14.3 NNE 18 23 1001.8 - 3.6 Rain - - - - - -
28/11:56am 14.5 N 19 29 1001.9 - 3.4 - - - - - - -
28/11:30am 14.3 N 18 22 1002.2 - 3.4 - - - - - - -
28/11:00am 14.4 N 15 19 1002.6 - 2.0 - - - - - - -
28/10:30am 14.5 NNW 11 18 1002.8 - 1.2 - - - - - - -
28/10:00am 15.1 N 20 24 1002.3 - 0.2 - - - - - - -
28/09:30am 16.1 N 21 25 1001.8 - 0.0 - - - - - - -
28/09:00am 15.3 N 12 16 1002.5 - 0.0 - - - - - - -
28/08:30am 15.4 N 13 16 1002.6 - 0.0 - - - - - - -
28/08:00am 13.7 NNE 6 10 1002.8 - 0.0 - - - - - - -
28/07:30am 11.7 NE 5 7 1003.4 - 0.0 - - - - - - -
28/07:00am 11.7 NE 6 8 1003.5 - 0.0 - - - - - - -
28/06:30am 11.2 NE 7 9 1003.5 - 0.0 - - - - - - -
28/06:00am 11.0 NE 6 8 1003.9 - 0.0 - - - - - - -
28/05:30am 10.9 NE 7 9 1004.3 - 0.0 - - - - - - -
28/05:00am 10.9 NE 7 9 1004.7 - 0.0 - - - - - - -
28/04:30am 10.2 ENE 7 8 1005.3 - 0.0 - - - - - - -
28/04:00am 10.8 ENE 5 7 1006.0 - 0.0 - - - - - - -
28/03:30am 11.4 NE 6 8 1006.5 - 0.0 - - - - - - -
28/03:00am 10.8 ENE 7 9 1007.2 - 0.0 - - - - - - -
28/02:30am 11.1 ENE 7 8 1007.7 - 0.0 - - - - - - -
28/02:00am 10.4 ENE 8 9 1007.9 - 0.0 - - - - - - -
28/01:30am 10.5 ENE 7 8 1008.7 - 0.0 - - - - - - -
28/01:00am 11.0 E 6 7 1008.8 - 0.0 - - - - - - -
28/12:30am 11.3 ESE 7 8 1009.5 - 0.0 - - - - - - -
28/12:00am 11.2 ESE 7 8 1009.6 - 0.0 - - - - - - -
 
Date/Time
EDT
Temp

°C
Wind Pressure Rain
since 9am
mm
Weather Cloud Vis
km
Sea
Height
m
Swell
Dir
 
Speed
knots
Gust
knots
hPa Trend Height
m
Period
s
Dir
27/11:30pm 11.3 ESE 7 7 1010.3 - 0.0 - - - - - - -
27/11:00pm 11.3 ESE 7 8 1010.5 - 0.0 - - - - - - -
27/10:30pm 12.0 SSE 6 7 1010.5 - 0.0 - - - - - - -
27/10:00pm 12.0 SSE 6 7 1010.7 - 0.0 - - - - - - -
27/09:30pm 13.7 SSW 8 11 1010.9 - 0.0 - - - - - - -
27/09:00pm 13.8 S 9 12 1010.7 - 0.0 - - - - - - -
27/08:30pm 13.9 SSW 10 12 1010.6 - 0.0 - - - - - - -
27/08:00pm 14.1 SSW 10 13 1010.4 - 0.0 - - - - - - -
27/07:30pm 14.9 SSW 9 11 1010.2 - 0.0 - - - - - - -
27/07:00pm 15.5 SSW 8 10 1010.0 - 0.0 - - - - - - -
27/06:30pm 16.3 SSW 9 11 1010.3 - 0.0 - - - - - - -
27/06:00pm 16.4 SSW 8 11 1010.2 - 0.0 - - - - - - -
27/05:30pm 15.9 S 9 11 1010.2 - 0.0 - - - - - - -
27/05:00pm 16.6 SSW 9 11 1010.3 - 0.0 - - - - - - -
27/04:30pm 17.5 SSW 8 10 1010.5 - 0.0 - - - - - - -
27/04:00pm 15.7 SW 12 14 1011.0 - 0.0 - - - - - - -
27/03:30pm 15.1 SSW 10 12 1010.6 - 0.0 - - - - - - -
27/03:00pm 15.7 SSW 8 11 1010.6 - 0.0 - - - - - - -
27/02:30pm 15.5 SSW 8 12 1010.8 - 0.0 - - - - - - -
27/02:00pm 16.1 SSW 9 10 1011.0 - 0.0 - - - - - - -
27/01:30pm 15.4 SSW 8 11 1010.9 - 0.0 - - - - - - -
27/01:00pm 16.5 SSW 8 10 1010.9 - 0.0 - - - - - - -
27/12:30pm 16.1 SSW 7 9 1011.0 - 0.0 - - - - - - -
27/12:00pm 16.7 SSW 7 10 1011.4 - 0.0 - - - - - - -
27/11:30am 14.9 SSW 8 11 1011.5 - 0.0 - - - - - - -
27/11:00am 15.3 S 8 10 1011.1 - 0.0 - - - - - - -
27/10:30am 15.8 S 9 12 1010.8 - 0.0 - - - - - - -
27/10:00am 15.0 S 7 9 1011.2 - 0.0 - - - - - - -
27/09:30am 14.2 S 5 8 1011.4 - 0.0 - - - - - - -
27/09:00am 14.3 E 2 4 1011.0 - 0.2 - - - - - - -
27/08:30am 12.6 ENE 1 3 1011.3 - 0.2 - - - - - - -
27/08:00am 12.6 ENE 2 3 1011.1 - 0.2 - - - - - - -
27/07:30am 11.5 ENE 4 4 1010.5 - 0.2 - - - - - - -
27/07:00am 10.4 ENE 5 6 1010.2 - 0.2 - - - - - - -
27/06:30am 10.5 E 8 9 1009.9 - 0.2 - - - - - - -
27/06:00am 10.4 SE 6 7 1010.1 - 0.2 - - - - - - -
27/05:30am 10.8 SE 5 6 1010.3 - 0.2 - - - - - - -
27/05:00am 12.4 S 6 9 1010.3 - 0.2 - - - - - - -
27/04:30am 11.5 SSE 4 7 1010.2 - 0.2 - - - - - - -
27/04:00am 11.8 SSW 3 5 1010.0 - 0.2 - - - - - - -
27/03:30am 11.3 SSE 3 5 1010.2 - 0.2 - - - - - - -
27/03:00am 10.5 ESE 7 9 1010.0 - 0.2 - - - - - - -
27/02:30am 10.9 ESE 8 10 1010.0 - 0.2 - - - - - - -
27/02:00am 10.8 ESE 7 9 1010.4 - 0.2 - - - - - - -
27/01:30am 10.7 ESE 8 9 1010.5 - 0.2 - - - - - - -
27/01:00am 10.9 SE 8 11 1010.9 - 0.2 - - - - - - -
27/12:30am 11.0 SSE 7 10 1010.7 - 0.2 - - - - - - -
27/12:00am 11.7 SSE 8 12 1011.1 - 0.2 - - - - - - -
 
Date/Time
EDT
Temp

°C
Wind Pressure Rain
since 9am
mm
Weather Cloud Vis
km
Sea
Height
m
Swell
Dir
 
Speed
knots
Gust
knots
hPa Trend Height
m
Period
s
Dir
26/11:30pm 12.5 SSE 10 15 1011.3 - 0.2 - - - - - - -
26/11:00pm 12.4 SE 10 14 1011.2 - 0.2 - - - - - - -
26/10:30pm 12.3 SE 8 13 1011.5 - 0.2 - - - - - - -
26/10:00pm 13.4 SSE 12 17 1011.5 - 0.2 - - - - - - -
26/09:30pm 14.1 S 18 21 1011.2 - 0.2 - - - - - - -
26/09:00pm 14.1 SSW 18 22 1010.8 - 0.2 - - - - - - -
26/08:30pm 14.1 S 16 20 1010.4 - 0.2 - - - - - - -
26/08:00pm 14.3 SSW 17 20 1010.0 - 0.2 - - - - - - -
26/07:30pm 15.0 SSW 17 19 1009.6 - 0.2 - - - - - - -
26/07:00pm 15.2 S 15 18 1009.5 - 0.2 - - - - - - -
26/06:30pm 15.5 S 15 19 1009.3 - 0.2 - - - - - - -
26/06:00pm 15.8 S 16 18 1009.1 - 0.2 - - - - - - -
26/05:30pm 15.9 S 16 20 1009.1 - 0.2 - - - - - - -
26/05:00pm 16.0 S 16 18 1008.9 - 0.2 - - - - - - -
26/04:30pm 15.9 S 17 21 1009.0 - 0.2 - - - - - - -
26/04:00pm 16.0 S 17 21 1009.0 - 0.2 - - - - - - -
26/03:30pm 15.5 S 18 21 1009.3 - 0.2 - - - - - - -
26/03:00pm 14.9 S 19 24 1009.3 - 0.2 - - - - - - -
26/02:30pm 14.6 S 21 25 1009.0 - 0.2 - - - - - - -
26/02:00pm 15.1 S 16 19 1008.8 - 0.2 - - - - - - -
26/01:30pm 14.2 SSW 20 23 1008.8 - 0.0 - - - - - - -
26/01:00pm 14.7 SSW 19 23 1008.6 - 0.0 - - - - - - -
26/12:30pm 15.8 SW 15 20 1008.4 - 0.0 - - - - - - -
26/12:00pm 16.7 WNW 10 13 1008.6 - 0.0 - - - - - - -
26/11:30am 16.7 W 11 14 1008.6 - 0.0 - - - - - - -
26/11:00am 17.0 W 12 15 1008.7 - 0.0 - - - - - - -
26/10:30am 16.6 W 14 18 1008.5 - 0.0 - - - - - - -
26/10:00am 16.3 W 11 14 1008.5 - 0.0 - - - - - - -
26/09:30am 15.9 W 11 16 1008.2 - 0.0 - - - - - - -
26/09:00am 16.3 W 10 14 1008.0 - 2.6 - - - - - - -
26/08:30am 16.1 WNW 10 13 1007.9 - 2.6 - - - - - - -
26/08:00am 16.0 NNW 10 14 1007.8 - 2.6 - - - - - - -
26/07:30am 15.9 NNW 13 19 1007.4 - 1.8 - - - - - - -
26/07:00am 16.1 NNW 15 19 1007.0 - 1.6 - - - - - - -
26/06:30am 16.0 N 13 16 1007.0 - 1.4 - - - - - - -
26/06:00am 15.4 NNE 11 13 1007.0 - 1.4 Recent precip. - - - - - -
26/05:30am 15.4 N 12 13 1007.0 - 1.4 - - - - - - -
26/05:00am 15.6 N 9 11 1007.3 - 1.0 - - - - - - -
26/04:30am 15.5 N 9 12 1007.7 - 1.0 - - - - - - -
26/04:00am 15.5 N 10 13 1007.8 - 0.6 - - - - - - -
26/03:30am 15.4 NNW 8 10 1008.2 - 0.4 - - - - - - -
26/03:00am 16.0 NNW 9 12 1008.5 - 0.0 - - - - - - -
26/02:30am 16.3 N 15 18 1008.6 - 0.0 - - - - - - -
26/02:00am 16.4 N 17 20 1009.2 - 0.0 - - - - - - -
26/01:30am 16.5 N 18 21 1009.6 - 0.0 - - - - - - -
26/01:00am 16.4 N 14 18 1010.1 - 0.0 - - - - - - -
26/12:30am 16.3 N 16 20 1010.5 - 0.0 - - - - - - -
26/12:00am 16.6 N 16 21 1010.8 - 0.0 - - - - - - -
 
Date/Time
EDT
Temp

°C
Wind Pressure Rain
since 9am
mm
Weather Cloud Vis
km
Sea
Height
m
Swell
Dir
 
Speed
knots
Gust
knots
hPa Trend Height
m
Period
s
Dir
25/11:30pm 16.6 N 16 19 1011.1 - 0.0 - - - - - - -

Other Formats:

Comma delimited format used in spreadsheet applications
http://www.bom.gov.au/fwo/IDT60701/IDT60701.94974.axf

JavaScript Object Notation format (JSON) in row-major order
http://www.bom.gov.au/fwo/IDT60701/IDT60701.94974.json